sensor_id;sensor_type;location;lat;lon;timestamp;P1;durP1;ratioP1;P2;durP2;ratioP2
66429;SDS011;53242;51.694;10.006;2023-07-08T00:01:13;5.93;;;2.40;;
66429;SDS011;53242;51.694;10.006;2023-07-08T00:03:38;3.80;;;2.00;;
66429;SDS011;53242;51.694;10.006;2023-07-08T00:06:00;4.47;;;2.13;;
66429;SDS011;53242;51.694;10.006;2023-07-08T00:08:22;7.22;;;2.28;;
66429;SDS011;53242;51.694;10.006;2023-07-08T00:10:45;5.45;;;2.20;;
66429;SDS011;53242;51.694;10.006;2023-07-08T00:13:08;6.85;;;2.22;;
66429;SDS011;53242;51.694;10.006;2023-07-08T00:15:31;6.57;;;2.00;;
66429;SDS011;53242;51.694;10.006;2023-07-08T00:17:54;6.22;;;2.47;;
66429;SDS011;53242;51.694;10.006;2023-07-08T00:20:18;3.60;;;2.00;;
66429;SDS011;53242;51.694;10.006;2023-07-08T00:22:43;4.38;;;1.92;;
66429;SDS011;53242;51.694;10.006;2023-07-08T00:25:08;7.32;;;1.90;;
66429;SDS011;53242;51.694;10.006;2023-07-08T00:27:31;6.00;;;2.22;;
66429;SDS011;53242;51.694;10.006;2023-07-08T00:29:53;4.20;;;2.00;;
66429;SDS011;53242;51.694;10.006;2023-07-08T00:32:16;5.15;;;2.10;;
66429;SDS011;53242;51.694;10.006;2023-07-08T00:34:38;5.18;;;2.20;;
66429;SDS011;53242;51.694;10.006;2023-07-08T00:37:00;4.97;;;2.00;;
66429;SDS011;53242;51.694;10.006;2023-07-08T00:39:25;7.70;;;2.58;;
66429;SDS011;53242;51.694;10.006;2023-07-08T00:41:48;5.55;;;2.08;;
66429;SDS011;53242;51.694;10.006;2023-07-08T00:44:11;4.57;;;2.10;;
66429;SDS011;53242;51.694;10.006;2023-07-08T00:46:37;8.57;;;2.22;;
66429;SDS011;53242;51.694;10.006;2023-07-08T00:51:44;6.68;;;2.25;;
66429;SDS011;53242;51.694;10.006;2023-07-08T00:54:14;6.68;;;2.10;;
66429;SDS011;53242;51.694;10.006;2023-07-08T00:59:27;4.45;;;2.30;;
66429;SDS011;53242;51.694;10.006;2023-07-08T01:01:57;5.60;;;2.08;;
66429;SDS011;53242;51.694;10.006;2023-07-08T01:04:24;4.72;;;2.22;;
66429;SDS011;53242;51.694;10.006;2023-07-08T01:07:07;4.30;;;2.20;;
66429;SDS011;53242;51.694;10.006;2023-07-08T01:09:32;5.97;;;2.20;;
66429;SDS011;53242;51.694;10.006;2023-07-08T01:12:01;5.13;;;2.33;;
66429;SDS011;53242;51.694;10.006;2023-07-08T01:14:27;5.13;;;2.08;;
66429;SDS011;53242;51.694;10.006;2023-07-08T01:16:53;5.93;;;2.30;;
66429;SDS011;53242;51.694;10.006;2023-07-08T01:19:17;6.38;;;2.13;;
66429;SDS011;53242;51.694;10.006;2023-07-08T01:21:45;3.42;;;2.00;;
66429;SDS011;53242;51.694;10.006;2023-07-08T01:24:09;5.78;;;2.13;;
66429;SDS011;53242;51.694;10.006;2023-07-08T01:26:34;6.85;;;2.20;;
66429;SDS011;53242;51.694;10.006;2023-07-08T01:28:59;5.85;;;2.10;;
66429;SDS011;53242;51.694;10.006;2023-07-08T01:31:23;5.45;;;2.15;;
66429;SDS011;53242;51.694;10.006;2023-07-08T01:33:45;5.90;;;2.20;;
66429;SDS011;53242;51.694;10.006;2023-07-08T01:36:09;5.55;;;2.50;;
66429;SDS011;53242;51.694;10.006;2023-07-08T01:38:33;4.25;;;2.42;;
66429;SDS011;53242;51.694;10.006;2023-07-08T01:40:56;7.38;;;2.70;;
66429;SDS011;53242;51.694;10.006;2023-07-08T01:43:19;5.40;;;2.58;;
66429;SDS011;53242;51.694;10.006;2023-07-08T01:45:42;5.03;;;2.55;;
66429;SDS011;53242;51.694;10.006;2023-07-08T01:48:09;8.30;;;2.35;;
66429;SDS011;53242;51.694;10.006;2023-07-08T01:50:37;4.20;;;2.40;;
66429;SDS011;53242;51.694;10.006;2023-07-08T01:53:06;6.43;;;2.75;;
66429;SDS011;53242;51.694;10.006;2023-07-08T01:55:32;5.72;;;2.40;;
66429;SDS011;53242;51.694;10.006;2023-07-08T01:57:55;6.53;;;2.50;;
66429;SDS011;53242;51.694;10.006;2023-07-08T02:00:17;4.65;;;2.28;;
66429;SDS011;53242;51.694;10.006;2023-07-08T02:02:40;5.15;;;2.53;;
66429;SDS011;53242;51.694;10.006;2023-07-08T02:05:02;4.68;;;2.40;;
66429;SDS011;53242;51.694;10.006;2023-07-08T02:07:25;4.03;;;2.35;;
66429;SDS011;53242;51.694;10.006;2023-07-08T02:09:47;5.22;;;2.55;;
66429;SDS011;53242;51.694;10.006;2023-07-08T02:12:10;5.80;;;2.50;;
66429;SDS011;53242;51.694;10.006;2023-07-08T02:14:33;6.15;;;3.00;;
66429;SDS011;53242;51.694;10.006;2023-07-08T02:16:56;7.55;;;2.70;;
66429;SDS011;53242;51.694;10.006;2023-07-08T02:19:19;6.22;;;2.50;;
66429;SDS011;53242;51.694;10.006;2023-07-08T02:21:44;7.88;;;2.50;;
66429;SDS011;53242;51.694;10.006;2023-07-08T02:24:06;7.13;;;2.90;;
66429;SDS011;53242;51.694;10.006;2023-07-08T02:26:31;6.07;;;2.92;;
66429;SDS011;53242;51.694;10.006;2023-07-08T02:28:56;7.18;;;2.58;;
66429;SDS011;53242;51.694;10.006;2023-07-08T02:31:19;7.93;;;2.90;;
66429;SDS011;53242;51.694;10.006;2023-07-08T02:33:41;5.85;;;2.65;;
66429;SDS011;53242;51.694;10.006;2023-07-08T02:36:03;8.02;;;3.00;;
66429;SDS011;53242;51.694;10.006;2023-07-08T02:38:26;6.78;;;2.72;;
66429;SDS011;53242;51.694;10.006;2023-07-08T02:40:48;5.22;;;2.47;;
66429;SDS011;53242;51.694;10.006;2023-07-08T02:43:11;5.25;;;2.72;;
66429;SDS011;53242;51.694;10.006;2023-07-08T02:45:34;6.95;;;2.95;;
66429;SDS011;53242;51.694;10.006;2023-07-08T02:47:57;6.18;;;3.25;;
66429;SDS011;53242;51.694;10.006;2023-07-08T02:50:20;6.63;;;2.70;;
66429;SDS011;53242;51.694;10.006;2023-07-08T02:52:42;8.43;;;2.88;;
66429;SDS011;53242;51.694;10.006;2023-07-08T02:55:05;7.38;;;3.05;;
66429;SDS011;53242;51.694;10.006;2023-07-08T02:57:28;8.32;;;3.00;;
66429;SDS011;53242;51.694;10.006;2023-07-08T02:59:50;6.97;;;3.05;;
66429;SDS011;53242;51.694;10.006;2023-07-08T03:02:13;5.90;;;2.65;;
66429;SDS011;53242;51.694;10.006;2023-07-08T03:04:36;8.15;;;3.25;;
66429;SDS011;53242;51.694;10.006;2023-07-08T03:07:01;7.38;;;3.00;;
66429;SDS011;53242;51.694;10.006;2023-07-08T03:09:24;7.90;;;3.20;;
66429;SDS011;53242;51.694;10.006;2023-07-08T03:11:46;5.55;;;2.83;;
66429;SDS011;53242;51.694;10.006;2023-07-08T03:14:08;6.70;;;2.70;;
66429;SDS011;53242;51.694;10.006;2023-07-08T03:16:31;9.50;;;3.50;;
66429;SDS011;53242;51.694;10.006;2023-07-08T03:18:53;7.65;;;2.90;;
66429;SDS011;53242;51.694;10.006;2023-07-08T03:21:16;8.43;;;2.97;;
66429;SDS011;53242;51.694;10.006;2023-07-08T03:23:40;6.78;;;2.97;;
66429;SDS011;53242;51.694;10.006;2023-07-08T03:26:03;8.35;;;3.25;;
66429;SDS011;53242;51.694;10.006;2023-07-08T03:28:26;5.90;;;2.72;;
66429;SDS011;53242;51.694;10.006;2023-07-08T03:30:51;4.80;;;2.42;;
66429;SDS011;53242;51.694;10.006;2023-07-08T03:33:14;7.50;;;2.88;;
66429;SDS011;53242;51.694;10.006;2023-07-08T03:35:37;8.05;;;3.30;;
66429;SDS011;53242;51.694;10.006;2023-07-08T03:38:03;7.10;;;3.35;;
66429;SDS011;53242;51.694;10.006;2023-07-08T03:40:25;8.63;;;3.70;;
66429;SDS011;53242;51.694;10.006;2023-07-08T03:42:47;6.30;;;3.25;;
66429;SDS011;53242;51.694;10.006;2023-07-08T03:45:10;7.40;;;3.33;;
66429;SDS011;53242;51.694;10.006;2023-07-08T03:47:32;7.75;;;3.42;;
66429;SDS011;53242;51.694;10.006;2023-07-08T03:49:56;9.35;;;3.95;;
66429;SDS011;53242;51.694;10.006;2023-07-08T03:52:18;7.43;;;3.45;;
66429;SDS011;53242;51.694;10.006;2023-07-08T03:54:41;10.00;;;4.03;;
66429;SDS011;53242;51.694;10.006;2023-07-08T03:57:04;9.18;;;3.53;;
66429;SDS011;53242;51.694;10.006;2023-07-08T03:59:27;7.55;;;3.80;;
66429;SDS011;53242;51.694;10.006;2023-07-08T04:01:51;9.50;;;3.33;;
66429;SDS011;53242;51.694;10.006;2023-07-08T04:04:14;9.30;;;4.07;;
66429;SDS011;53242;51.694;10.006;2023-07-08T04:06:39;9.27;;;3.78;;
66429;SDS011;53242;51.694;10.006;2023-07-08T04:09:02;9.80;;;3.80;;
66429;SDS011;53242;51.694;10.006;2023-07-08T04:11:25;10.05;;;3.53;;
66429;SDS011;53242;51.694;10.006;2023-07-08T04:13:49;10.52;;;4.10;;
66429;SDS011;53242;51.694;10.006;2023-07-08T04:16:16;8.98;;;3.70;;
66429;SDS011;53242;51.694;10.006;2023-07-08T04:18:42;8.60;;;3.90;;
66429;SDS011;53242;51.694;10.006;2023-07-08T04:21:04;7.57;;;3.28;;
66429;SDS011;53242;51.694;10.006;2023-07-08T04:23:28;6.78;;;3.40;;
66429;SDS011;53242;51.694;10.006;2023-07-08T04:25:52;8.45;;;3.65;;
66429;SDS011;53242;51.694;10.006;2023-07-08T04:28:17;8.63;;;3.58;;
66429;SDS011;53242;51.694;10.006;2023-07-08T04:30:40;8.07;;;3.20;;
66429;SDS011;53242;51.694;10.006;2023-07-08T04:33:03;9.15;;;3.70;;
66429;SDS011;53242;51.694;10.006;2023-07-08T04:35:25;8.75;;;3.55;;
66429;SDS011;53242;51.694;10.006;2023-07-08T04:37:48;7.13;;;3.15;;
66429;SDS011;53242;51.694;10.006;2023-07-08T04:40:13;8.50;;;3.55;;
66429;SDS011;53242;51.694;10.006;2023-07-08T04:42:40;7.82;;;3.13;;
66429;SDS011;53242;51.694;10.006;2023-07-08T04:45:03;8.50;;;3.50;;
66429;SDS011;53242;51.694;10.006;2023-07-08T04:47:26;8.15;;;3.33;;
66429;SDS011;53242;51.694;10.006;2023-07-08T04:49:51;8.35;;;3.28;;
66429;SDS011;53242;51.694;10.006;2023-07-08T04:52:13;7.70;;;3.20;;
66429;SDS011;53242;51.694;10.006;2023-07-08T04:54:36;6.90;;;3.30;;
66429;SDS011;53242;51.694;10.006;2023-07-08T04:56:58;9.00;;;3.33;;
66429;SDS011;53242;51.694;10.006;2023-07-08T04:59:22;9.70;;;3.65;;
66429;SDS011;53242;51.694;10.006;2023-07-08T05:01:46;6.32;;;3.13;;
66429;SDS011;53242;51.694;10.006;2023-07-08T05:04:09;8.32;;;3.70;;
66429;SDS011;53242;51.694;10.006;2023-07-08T05:06:34;9.85;;;3.70;;
66429;SDS011;53242;51.694;10.006;2023-07-08T05:08:57;7.50;;;3.45;;
66429;SDS011;53242;51.694;10.006;2023-07-08T05:11:21;6.75;;;3.33;;
66429;SDS011;53242;51.694;10.006;2023-07-08T05:13:43;8.85;;;3.42;;
66429;SDS011;53242;51.694;10.006;2023-07-08T05:16:05;8.07;;;3.20;;
66429;SDS011;53242;51.694;10.006;2023-07-08T05:18:28;7.40;;;3.50;;
66429;SDS011;53242;51.694;10.006;2023-07-08T05:20:51;7.18;;;3.25;;
66429;SDS011;53242;51.694;10.006;2023-07-08T05:23:14;7.57;;;3.30;;
66429;SDS011;53242;51.694;10.006;2023-07-08T05:25:36;8.77;;;3.47;;
66429;SDS011;53242;51.694;10.006;2023-07-08T05:27:59;6.55;;;3.38;;
66429;SDS011;53242;51.694;10.006;2023-07-08T05:30:21;8.10;;;3.13;;
66429;SDS011;53242;51.694;10.006;2023-07-08T05:32:44;6.80;;;3.30;;
66429;SDS011;53242;51.694;10.006;2023-07-08T05:35:07;7.85;;;3.45;;
66429;SDS011;53242;51.694;10.006;2023-07-08T05:37:30;7.97;;;3.42;;
66429;SDS011;53242;51.694;10.006;2023-07-08T05:39:52;9.55;;;3.53;;
66429;SDS011;53242;51.694;10.006;2023-07-08T05:42:15;7.95;;;3.45;;
66429;SDS011;53242;51.694;10.006;2023-07-08T05:44:37;13.88;;;3.40;;
66429;SDS011;53242;51.694;10.006;2023-07-08T05:46:59;8.88;;;3.60;;
66429;SDS011;53242;51.694;10.006;2023-07-08T05:49:22;6.85;;;3.30;;
66429;SDS011;53242;51.694;10.006;2023-07-08T05:51:44;8.20;;;3.63;;
66429;SDS011;53242;51.694;10.006;2023-07-08T05:54:07;10.15;;;3.78;;
66429;SDS011;53242;51.694;10.006;2023-07-08T05:56:29;10.35;;;4.03;;
66429;SDS011;53242;51.694;10.006;2023-07-08T05:58:52;14.13;;;4.05;;
66429;SDS011;53242;51.694;10.006;2023-07-08T06:01:15;6.32;;;3.20;;
66429;SDS011;53242;51.694;10.006;2023-07-08T06:03:37;7.20;;;3.20;;
66429;SDS011;53242;51.694;10.006;2023-07-08T06:06:00;6.90;;;2.85;;
66429;SDS011;53242;51.694;10.006;2023-07-08T06:08:24;13.20;;;3.63;;
66429;SDS011;53242;51.694;10.006;2023-07-08T06:10:46;8.82;;;3.58;;
66429;SDS011;53242;51.694;10.006;2023-07-08T06:13:09;6.82;;;3.05;;
66429;SDS011;53242;51.694;10.006;2023-07-08T06:15:31;8.43;;;2.95;;
66429;SDS011;53242;51.694;10.006;2023-07-08T06:17:54;8.38;;;3.20;;
66429;SDS011;53242;51.694;10.006;2023-07-08T06:20:16;13.07;;;4.35;;
66429;SDS011;53242;51.694;10.006;2023-07-08T06:22:38;11.05;;;4.40;;
66429;SDS011;53242;51.694;10.006;2023-07-08T06:25:01;12.38;;;3.83;;
66429;SDS011;53242;51.694;10.006;2023-07-08T06:27:23;8.18;;;3.47;;
66429;SDS011;53242;51.694;10.006;2023-07-08T06:29:46;8.82;;;3.03;;
66429;SDS011;53242;51.694;10.006;2023-07-08T06:32:09;6.97;;;2.88;;
66429;SDS011;53242;51.694;10.006;2023-07-08T06:34:31;7.25;;;3.33;;
66429;SDS011;53242;51.694;10.006;2023-07-08T06:36:54;8.25;;;3.38;;
66429;SDS011;53242;51.694;10.006;2023-07-08T06:39:16;6.05;;;2.80;;
66429;SDS011;53242;51.694;10.006;2023-07-08T06:41:39;10.18;;;2.95;;
66429;SDS011;53242;51.694;10.006;2023-07-08T06:44:02;5.53;;;2.85;;
66429;SDS011;53242;51.694;10.006;2023-07-08T06:46:27;7.05;;;2.92;;
66429;SDS011;53242;51.694;10.006;2023-07-08T06:48:50;6.72;;;3.25;;
66429;SDS011;53242;51.694;10.006;2023-07-08T06:51:12;5.13;;;2.83;;
66429;SDS011;53242;51.694;10.006;2023-07-08T06:53:34;7.18;;;2.75;;
66429;SDS011;53242;51.694;10.006;2023-07-08T06:55:57;10.45;;;3.10;;
66429;SDS011;53242;51.694;10.006;2023-07-08T06:58:19;6.63;;;3.10;;
66429;SDS011;53242;51.694;10.006;2023-07-08T07:00:45;5.60;;;2.63;;
66429;SDS011;53242;51.694;10.006;2023-07-08T07:03:07;7.40;;;3.50;;
66429;SDS011;53242;51.694;10.006;2023-07-08T07:05:30;6.93;;;3.05;;
66429;SDS011;53242;51.694;10.006;2023-07-08T07:07:52;6.88;;;3.22;;
66429;SDS011;53242;51.694;10.006;2023-07-08T07:10:15;6.50;;;3.22;;
66429;SDS011;53242;51.694;10.006;2023-07-08T07:12:37;9.60;;;3.05;;
66429;SDS011;53242;51.694;10.006;2023-07-08T07:14:59;7.68;;;2.85;;
66429;SDS011;53242;51.694;10.006;2023-07-08T07:17:22;6.13;;;3.10;;
66429;SDS011;53242;51.694;10.006;2023-07-08T07:19:46;6.65;;;3.28;;
66429;SDS011;53242;51.694;10.006;2023-07-08T07:22:09;5.20;;;2.80;;
66429;SDS011;53242;51.694;10.006;2023-07-08T07:24:32;6.57;;;2.90;;
66429;SDS011;53242;51.694;10.006;2023-07-08T07:26:54;7.60;;;3.10;;
66429;SDS011;53242;51.694;10.006;2023-07-08T07:29:17;8.93;;;3.25;;
66429;SDS011;53242;51.694;10.006;2023-07-08T07:31:39;7.07;;;3.20;;
66429;SDS011;53242;51.694;10.006;2023-07-08T07:34:02;5.55;;;3.08;;
66429;SDS011;53242;51.694;10.006;2023-07-08T07:36:24;7.88;;;2.83;;
66429;SDS011;53242;51.694;10.006;2023-07-08T07:38:47;8.73;;;2.83;;
66429;SDS011;53242;51.694;10.006;2023-07-08T07:41:09;7.07;;;2.95;;
66429;SDS011;53242;51.694;10.006;2023-07-08T07:43:33;8.55;;;2.88;;
66429;SDS011;53242;51.694;10.006;2023-07-08T07:45:56;7.22;;;3.22;;
66429;SDS011;53242;51.694;10.006;2023-07-08T07:48:19;6.03;;;3.08;;
66429;SDS011;53242;51.694;10.006;2023-07-08T07:50:44;5.65;;;3.13;;
66429;SDS011;53242;51.694;10.006;2023-07-08T07:53:08;5.97;;;3.08;;
66429;SDS011;53242;51.694;10.006;2023-07-08T07:55:30;5.78;;;2.80;;
66429;SDS011;53242;51.694;10.006;2023-07-08T07:57:53;7.38;;;3.38;;
66429;SDS011;53242;51.694;10.006;2023-07-08T08:00:15;6.10;;;2.88;;
66429;SDS011;53242;51.694;10.006;2023-07-08T08:02:40;6.18;;;2.83;;
66429;SDS011;53242;51.694;10.006;2023-07-08T08:05:03;5.50;;;3.00;;
66429;SDS011;53242;51.694;10.006;2023-07-08T08:07:26;5.93;;;2.78;;
66429;SDS011;53242;51.694;10.006;2023-07-08T08:09:48;6.15;;;3.22;;
66429;SDS011;53242;51.694;10.006;2023-07-08T08:12:11;5.80;;;2.88;;
66429;SDS011;53242;51.694;10.006;2023-07-08T08:14:33;6.47;;;3.00;;
66429;SDS011;53242;51.694;10.006;2023-07-08T08:16:55;5.80;;;2.67;;
66429;SDS011;53242;51.694;10.006;2023-07-08T08:19:18;6.88;;;2.90;;
66429;SDS011;53242;51.694;10.006;2023-07-08T08:21:40;6.35;;;3.03;;
66429;SDS011;53242;51.694;10.006;2023-07-08T08:24:03;10.82;;;3.05;;
66429;SDS011;53242;51.694;10.006;2023-07-08T08:26:26;7.15;;;3.10;;
66429;SDS011;53242;51.694;10.006;2023-07-08T08:28:49;9.40;;;3.00;;
66429;SDS011;53242;51.694;10.006;2023-07-08T08:31:11;11.07;;;3.40;;
66429;SDS011;53242;51.694;10.006;2023-07-08T08:33:34;5.85;;;2.65;;
66429;SDS011;53242;51.694;10.006;2023-07-08T08:35:56;5.28;;;2.75;;
66429;SDS011;53242;51.694;10.006;2023-07-08T08:38:19;6.88;;;3.03;;
66429;SDS011;53242;51.694;10.006;2023-07-08T08:40:41;6.75;;;3.13;;
66429;SDS011;53242;51.694;10.006;2023-07-08T08:43:15;5.25;;;3.00;;
66429;SDS011;53242;51.694;10.006;2023-07-08T08:46:00;5.93;;;2.85;;
66429;SDS011;53242;51.694;10.006;2023-07-08T08:48:28;7.05;;;3.05;;
66429;SDS011;53242;51.694;10.006;2023-07-08T08:51:16;5.53;;;3.05;;
66429;SDS011;53242;51.694;10.006;2023-07-08T08:53:37;7.03;;;2.90;;
66429;SDS011;53242;51.694;10.006;2023-07-08T08:56:19;6.60;;;3.50;;
66429;SDS011;53242;51.694;10.006;2023-07-08T08:58:48;6.72;;;3.00;;
66429;SDS011;53242;51.694;10.006;2023-07-08T09:01:25;8.32;;;3.35;;
66429;SDS011;53242;51.694;10.006;2023-07-08T09:03:49;5.70;;;2.97;;
66429;SDS011;53242;51.694;10.006;2023-07-08T09:06:19;8.02;;;3.40;;
66429;SDS011;53242;51.694;10.006;2023-07-08T09:08:41;8.13;;;3.50;;
66429;SDS011;53242;51.694;10.006;2023-07-08T09:13:56;6.05;;;3.08;;
66429;SDS011;53242;51.694;10.006;2023-07-08T09:16:26;7.05;;;3.13;;
66429;SDS011;53242;51.694;10.006;2023-07-08T09:19:07;8.05;;;3.10;;
66429;SDS011;53242;51.694;10.006;2023-07-08T09:21:44;6.75;;;3.38;;
66429;SDS011;53242;51.694;10.006;2023-07-08T09:24:26;6.30;;;2.92;;
66429;SDS011;53242;51.694;10.006;2023-07-08T09:26:58;7.00;;;3.15;;
66429;SDS011;53242;51.694;10.006;2023-07-08T09:29:23;8.52;;;3.42;;
66429;SDS011;53242;51.694;10.006;2023-07-08T09:31:45;6.70;;;3.10;;
66429;SDS011;53242;51.694;10.006;2023-07-08T09:34:21;6.82;;;3.60;;
66429;SDS011;53242;51.694;10.006;2023-07-08T09:36:46;5.90;;;3.05;;
66429;SDS011;53242;51.694;10.006;2023-07-08T09:39:10;6.95;;;3.10;;
66429;SDS011;53242;51.694;10.006;2023-07-08T09:41:37;6.28;;;3.08;;
66429;SDS011;53242;51.694;10.006;2023-07-08T09:44:13;11.13;;;3.63;;
66429;SDS011;53242;51.694;10.006;2023-07-08T09:46:37;7.75;;;3.25;;
66429;SDS011;53242;51.694;10.006;2023-07-08T09:49:01;6.05;;;3.05;;
66429;SDS011;53242;51.694;10.006;2023-07-08T09:51:49;7.28;;;3.30;;
66429;SDS011;53242;51.694;10.006;2023-07-08T09:54:13;6.65;;;3.30;;
66429;SDS011;53242;51.694;10.006;2023-07-08T09:56:35;8.35;;;3.20;;
66429;SDS011;53242;51.694;10.006;2023-07-08T09:59:04;8.10;;;3.72;;
66429;SDS011;53242;51.694;10.006;2023-07-08T10:01:27;7.68;;;3.33;;
66429;SDS011;53242;51.694;10.006;2023-07-08T10:03:51;5.63;;;3.08;;
66429;SDS011;53242;51.694;10.006;2023-07-08T10:06:29;6.53;;;3.22;;
66429;SDS011;53242;51.694;10.006;2023-07-08T10:08:55;6.50;;;3.45;;
66429;SDS011;53242;51.694;10.006;2023-07-08T10:11:23;7.90;;;3.80;;
66429;SDS011;53242;51.694;10.006;2023-07-08T10:13:49;7.15;;;3.25;;
66429;SDS011;53242;51.694;10.006;2023-07-08T10:16:24;7.45;;;3.28;;
66429;SDS011;53242;51.694;10.006;2023-07-08T10:18:49;7.25;;;3.20;;
66429;SDS011;53242;51.694;10.006;2023-07-08T10:24:36;7.03;;;3.30;;
66429;SDS011;53242;51.694;10.006;2023-07-08T10:29:50;7.63;;;3.05;;
66429;SDS011;53242;51.694;10.006;2023-07-08T10:32:28;5.75;;;3.20;;
66429;SDS011;53242;51.694;10.006;2023-07-08T10:35:01;6.80;;;3.00;;
66429;SDS011;53242;51.694;10.006;2023-07-08T10:37:43;6.30;;;3.15;;
66429;SDS011;53242;51.694;10.006;2023-07-08T10:40:19;6.50;;;3.10;;
66429;SDS011;53242;51.694;10.006;2023-07-08T10:51:47;9.55;;;3.30;;
66429;SDS011;53242;51.694;10.006;2023-07-08T11:00:11;7.38;;;2.88;;
66429;SDS011;53242;51.694;10.006;2023-07-08T11:08:07;6.57;;;3.10;;
66429;SDS011;53242;51.694;10.006;2023-07-08T11:10:39;6.85;;;2.95;;
66429;SDS011;53242;51.694;10.006;2023-07-08T11:13:12;7.82;;;3.17;;
66429;SDS011;53242;51.694;10.006;2023-07-08T11:15:52;6.32;;;2.92;;
66429;SDS011;53242;51.694;10.006;2023-07-08T11:18:24;7.22;;;3.03;;
66429;SDS011;53242;51.694;10.006;2023-07-08T11:21:11;5.70;;;3.38;;
66429;SDS011;53242;51.694;10.006;2023-07-08T11:26:17;6.55;;;3.00;;
66429;SDS011;53242;51.694;10.006;2023-07-08T11:28:51;7.60;;;3.22;;
66429;SDS011;53242;51.694;10.006;2023-07-08T11:31:18;7.78;;;3.17;;
66429;SDS011;53242;51.694;10.006;2023-07-08T11:33:41;5.53;;;2.92;;
66429;SDS011;53242;51.694;10.006;2023-07-08T11:36:06;10.07;;;3.33;;
66429;SDS011;53242;51.694;10.006;2023-07-08T11:38:29;6.47;;;3.22;;
66429;SDS011;53242;51.694;10.006;2023-07-08T11:40:59;7.43;;;3.20;;
66429;SDS011;53242;51.694;10.006;2023-07-08T11:43:28;6.00;;;2.83;;
66429;SDS011;53242;51.694;10.006;2023-07-08T11:46:03;5.53;;;3.08;;
66429;SDS011;53242;51.694;10.006;2023-07-08T11:48:31;6.93;;;3.22;;
66429;SDS011;53242;51.694;10.006;2023-07-08T11:51:05;7.38;;;2.92;;
66429;SDS011;53242;51.694;10.006;2023-07-08T11:55:58;5.15;;;2.70;;
66429;SDS011;53242;51.694;10.006;2023-07-08T11:58:26;7.07;;;3.25;;
66429;SDS011;53242;51.694;10.006;2023-07-08T12:00:58;6.18;;;3.30;;
66429;SDS011;53242;51.694;10.006;2023-07-08T12:03:21;6.65;;;3.22;;
66429;SDS011;53242;51.694;10.006;2023-07-08T12:05:44;5.95;;;3.08;;
66429;SDS011;53242;51.694;10.006;2023-07-08T12:08:11;6.85;;;3.10;;
66429;SDS011;53242;51.694;10.006;2023-07-08T12:10:40;9.27;;;3.50;;
66429;SDS011;53242;51.694;10.006;2023-07-08T12:13:12;6.78;;;3.05;;
66429;SDS011;53242;51.694;10.006;2023-07-08T12:15:37;7.93;;;3.17;;
66429;SDS011;53242;51.694;10.006;2023-07-08T12:18:00;8.80;;;3.42;;
66429;SDS011;53242;51.694;10.006;2023-07-08T12:20:33;5.97;;;2.85;;
66429;SDS011;53242;51.694;10.006;2023-07-08T12:22:59;8.80;;;3.40;;
66429;SDS011;53242;51.694;10.006;2023-07-08T12:25:26;7.57;;;3.50;;
66429;SDS011;53242;51.694;10.006;2023-07-08T12:27:50;8.27;;;3.65;;
66429;SDS011;53242;51.694;10.006;2023-07-08T12:30:13;7.15;;;3.28;;
66429;SDS011;53242;51.694;10.006;2023-07-08T12:32:37;6.78;;;3.05;;
66429;SDS011;53242;51.694;10.006;2023-07-08T12:37:23;7.15;;;3.30;;
66429;SDS011;53242;51.694;10.006;2023-07-08T12:39:53;8.30;;;3.50;;
66429;SDS011;53242;51.694;10.006;2023-07-08T12:42:22;7.68;;;3.53;;
66429;SDS011;53242;51.694;10.006;2023-07-08T12:44:44;6.75;;;3.20;;
66429;SDS011;53242;51.694;10.006;2023-07-08T12:47:07;8.35;;;3.60;;
66429;SDS011;53242;51.694;10.006;2023-07-08T12:49:33;8.13;;;3.45;;
66429;SDS011;53242;51.694;10.006;2023-07-08T12:51:56;8.82;;;3.50;;
66429;SDS011;53242;51.694;10.006;2023-07-08T12:54:18;7.10;;;3.20;;
66429;SDS011;53242;51.694;10.006;2023-07-08T12:56:42;7.25;;;3.45;;
66429;SDS011;53242;51.694;10.006;2023-07-08T12:59:06;8.57;;;3.72;;
66429;SDS011;53242;51.694;10.006;2023-07-08T13:01:30;6.90;;;3.25;;
66429;SDS011;53242;51.694;10.006;2023-07-08T13:03:56;7.82;;;3.47;;
66429;SDS011;53242;51.694;10.006;2023-07-08T13:06:23;9.65;;;3.78;;
66429;SDS011;53242;51.694;10.006;2023-07-08T13:08:50;8.13;;;3.85;;
66429;SDS011;53242;51.694;10.006;2023-07-08T13:11:14;6.68;;;3.20;;
66429;SDS011;53242;51.694;10.006;2023-07-08T13:13:39;8.00;;;3.50;;
66429;SDS011;53242;51.694;10.006;2023-07-08T13:16:10;6.85;;;3.60;;
66429;SDS011;53242;51.694;10.006;2023-07-08T13:18:34;7.30;;;3.47;;
66429;SDS011;53242;51.694;10.006;2023-07-08T13:20:59;7.82;;;3.53;;
66429;SDS011;53242;51.694;10.006;2023-07-08T13:23:22;7.55;;;3.25;;
66429;SDS011;53242;51.694;10.006;2023-07-08T13:25:46;7.32;;;3.33;;
66429;SDS011;53242;51.694;10.006;2023-07-08T13:28:17;7.45;;;3.60;;
66429;SDS011;53242;51.694;10.006;2023-07-08T13:30:52;9.90;;;3.40;;
66429;SDS011;53242;51.694;10.006;2023-07-08T13:33:16;6.68;;;3.38;;
66429;SDS011;53242;51.694;10.006;2023-07-08T13:35:39;8.43;;;3.55;;
66429;SDS011;53242;51.694;10.006;2023-07-08T13:38:02;8.25;;;3.40;;
66429;SDS011;53242;51.694;10.006;2023-07-08T13:40:29;6.60;;;3.55;;
66429;SDS011;53242;51.694;10.006;2023-07-08T13:42:53;7.00;;;3.30;;
66429;SDS011;53242;51.694;10.006;2023-07-08T13:45:16;7.32;;;3.50;;
66429;SDS011;53242;51.694;10.006;2023-07-08T13:47:44;8.55;;;3.50;;
66429;SDS011;53242;51.694;10.006;2023-07-08T13:50:24;7.82;;;3.55;;
66429;SDS011;53242;51.694;10.006;2023-07-08T13:52:53;7.63;;;3.67;;
66429;SDS011;53242;51.694;10.006;2023-07-08T13:55:19;7.47;;;3.30;;
66429;SDS011;53242;51.694;10.006;2023-07-08T13:57:42;8.82;;;3.42;;
66429;SDS011;53242;51.694;10.006;2023-07-08T14:00:05;7.30;;;3.38;;
66429;SDS011;53242;51.694;10.006;2023-07-08T14:02:34;7.75;;;3.50;;
66429;SDS011;53242;51.694;10.006;2023-07-08T14:04:57;7.82;;;3.40;;
66429;SDS011;53242;51.694;10.006;2023-07-08T14:07:22;8.45;;;3.80;;
66429;SDS011;53242;51.694;10.006;2023-07-08T14:09:46;7.85;;;3.47;;
66429;SDS011;53242;51.694;10.006;2023-07-08T14:12:09;6.47;;;3.60;;
66429;SDS011;53242;51.694;10.006;2023-07-08T14:14:31;8.13;;;3.58;;
66429;SDS011;53242;51.694;10.006;2023-07-08T14:16:53;7.57;;;3.58;;
66429;SDS011;53242;51.694;10.006;2023-07-08T14:19:17;7.82;;;3.45;;
66429;SDS011;53242;51.694;10.006;2023-07-08T14:21:43;8.15;;;3.70;;
66429;SDS011;53242;51.694;10.006;2023-07-08T14:24:12;8.77;;;3.38;;
66429;SDS011;53242;51.694;10.006;2023-07-08T14:26:36;9.73;;;3.80;;
66429;SDS011;53242;51.694;10.006;2023-07-08T14:28:58;8.48;;;4.07;;
66429;SDS011;53242;51.694;10.006;2023-07-08T14:31:21;6.88;;;3.53;;
66429;SDS011;53242;51.694;10.006;2023-07-08T14:33:47;7.97;;;3.70;;
66429;SDS011;53242;51.694;10.006;2023-07-08T14:36:10;9.07;;;4.00;;
66429;SDS011;53242;51.694;10.006;2023-07-08T14:38:33;8.05;;;3.60;;
66429;SDS011;53242;51.694;10.006;2023-07-08T14:40:55;8.50;;;3.58;;
66429;SDS011;53242;51.694;10.006;2023-07-08T14:43:26;6.28;;;3.28;;
66429;SDS011;53242;51.694;10.006;2023-07-08T14:45:50;7.15;;;3.50;;
66429;SDS011;53242;51.694;10.006;2023-07-08T14:48:15;9.75;;;3.70;;
66429;SDS011;53242;51.694;10.006;2023-07-08T14:50:37;7.15;;;3.58;;
66429;SDS011;53242;51.694;10.006;2023-07-08T14:53:01;8.45;;;3.70;;
66429;SDS011;53242;51.694;10.006;2023-07-08T14:55:23;8.32;;;3.10;;
66429;SDS011;53242;51.694;10.006;2023-07-08T14:57:47;10.30;;;3.70;;
66429;SDS011;53242;51.694;10.006;2023-07-08T15:00:11;8.45;;;3.90;;
66429;SDS011;53242;51.694;10.006;2023-07-08T15:02:35;7.68;;;3.65;;